sensor_id;sensor_type;location;lat;lon;timestamp;temperature;humidity
25360;DHT22;13311;51.386;0.016;2023-07-13T00:02:22;20.30;85.70
25360;DHT22;13311;51.386;0.016;2023-07-13T00:07:23;20.30;85.40
25360;DHT22;13311;51.386;0.016;2023-07-13T00:12:35;20.20;85.40
25360;DHT22;13311;51.386;0.016;2023-07-13T00:17:37;20.30;85.80
25360;DHT22;13311;51.386;0.016;2023-07-13T00:22:39;20.20;85.90
25360;DHT22;13311;51.386;0.016;2023-07-13T00:27:39;20.30;85.60
25360;DHT22;13311;51.386;0.016;2023-07-13T00:32:41;20.30;85.20
25360;DHT22;13311;51.386;0.016;2023-07-13T00:37:42;20.20;84.90
25360;DHT22;13311;51.386;0.016;2023-07-13T00:42:43;20.10;85.00
25360;DHT22;13311;51.386;0.016;2023-07-13T00:47:44;20.20;84.60
25360;DHT22;13311;51.386;0.016;2023-07-13T00:52:48;20.10;85.00
25360;DHT22;13311;51.386;0.016;2023-07-13T00:57:51;20.00;85.50
25360;DHT22;13311;51.386;0.016;2023-07-13T01:02:52;19.90;85.70
25360;DHT22;13311;51.386;0.016;2023-07-13T01:07:53;19.80;85.80
25360;DHT22;13311;51.386;0.016;2023-07-13T01:12:54;19.80;86.30
25360;DHT22;13311;51.386;0.016;2023-07-13T01:17:55;19.70;86.70
25360;DHT22;13311;51.386;0.016;2023-07-13T01:22:56;19.60;87.10
25360;DHT22;13311;51.386;0.016;2023-07-13T01:27:56;19.60;87.50
25360;DHT22;13311;51.386;0.016;2023-07-13T01:32:58;19.60;87.70
25360;DHT22;13311;51.386;0.016;2023-07-13T01:37:59;19.50;88.20
25360;DHT22;13311;51.386;0.016;2023-07-13T01:43:01;19.40;88.40
25360;DHT22;13311;51.386;0.016;2023-07-13T01:48:03;19.40;88.40
25360;DHT22;13311;51.386;0.016;2023-07-13T01:53:04;19.30;88.50
25360;DHT22;13311;51.386;0.016;2023-07-13T01:58:06;19.30;88.30
25360;DHT22;13311;51.386;0.016;2023-07-13T02:03:07;19.30;88.00
25360;DHT22;13311;51.386;0.016;2023-07-13T02:08:07;19.30;87.70
25360;DHT22;13311;51.386;0.016;2023-07-13T02:13:08;19.30;87.20
25360;DHT22;13311;51.386;0.016;2023-07-13T02:18:09;19.30;87.30
25360;DHT22;13311;51.386;0.016;2023-07-13T02:23:10;19.20;87.50
25360;DHT22;13311;51.386;0.016;2023-07-13T02:28:11;19.30;86.70
25360;DHT22;13311;51.386;0.016;2023-07-13T02:33:12;19.20;86.90
25360;DHT22;13311;51.386;0.016;2023-07-13T02:38:13;19.20;87.20
25360;DHT22;13311;51.386;0.016;2023-07-13T02:43:14;19.20;87.20
25360;DHT22;13311;51.386;0.016;2023-07-13T02:48:15;19.10;87.70
25360;DHT22;13311;51.386;0.016;2023-07-13T02:53:15;19.10;87.80
25360;DHT22;13311;51.386;0.016;2023-07-13T02:58:16;19.10;86.90
25360;DHT22;13311;51.386;0.016;2023-07-13T03:03:18;19.10;87.40
25360;DHT22;13311;51.386;0.016;2023-07-13T03:08:18;19.00;87.80
25360;DHT22;13311;51.386;0.016;2023-07-13T03:13:19;18.90;88.60
25360;DHT22;13311;51.386;0.016;2023-07-13T03:18:20;18.70;88.90
25360;DHT22;13311;51.386;0.016;2023-07-13T03:23:21;18.70;89.30
25360;DHT22;13311;51.386;0.016;2023-07-13T03:28:22;18.60;89.90
25360;DHT22;13311;51.386;0.016;2023-07-13T03:33:23;18.50;90.20
25360;DHT22;13311;51.386;0.016;2023-07-13T03:38:24;18.40;90.50
25360;DHT22;13311;51.386;0.016;2023-07-13T03:43:25;18.30;90.80
25360;DHT22;13311;51.386;0.016;2023-07-13T03:48:26;18.30;90.80
25360;DHT22;13311;51.386;0.016;2023-07-13T03:53:26;18.30;90.90
25360;DHT22;13311;51.386;0.016;2023-07-13T04:03:38;18.20;90.90
25360;DHT22;13311;51.386;0.016;2023-07-13T04:08:40;18.20;91.20
25360;DHT22;13311;51.386;0.016;2023-07-13T04:13:41;18.20;91.20
25360;DHT22;13311;51.386;0.016;2023-07-13T04:18:42;18.20;91.20
25360;DHT22;13311;51.386;0.016;2023-07-13T04:23:43;18.30;91.00
25360;DHT22;13311;51.386;0.016;2023-07-13T04:28:43;18.20;91.10
25360;DHT22;13311;51.386;0.016;2023-07-13T04:33:44;18.30;91.10
25360;DHT22;13311;51.386;0.016;2023-07-13T04:38:45;18.40;91.10
25360;DHT22;13311;51.386;0.016;2023-07-13T04:43:46;18.40;91.00
25360;DHT22;13311;51.386;0.016;2023-07-13T04:48:48;18.40;91.00
25360;DHT22;13311;51.386;0.016;2023-07-13T04:53:49;18.50;91.10
25360;DHT22;13311;51.386;0.016;2023-07-13T04:58:50;18.50;91.30
25360;DHT22;13311;51.386;0.016;2023-07-13T05:03:51;18.60;90.90
25360;DHT22;13311;51.386;0.016;2023-07-13T05:08:51;18.90;90.60
25360;DHT22;13311;51.386;0.016;2023-07-13T05:13:52;19.20;90.50
25360;DHT22;13311;51.386;0.016;2023-07-13T05:18:53;19.60;90.00
25360;DHT22;13311;51.386;0.016;2023-07-13T05:23:54;20.10;88.20
25360;DHT22;13311;51.386;0.016;2023-07-13T05:28:55;20.30;86.80
25360;DHT22;13311;51.386;0.016;2023-07-13T05:33:55;20.60;87.10
25360;DHT22;13311;51.386;0.016;2023-07-13T05:38:56;21.10;86.00
25360;DHT22;13311;51.386;0.016;2023-07-13T05:43:57;21.90;84.20
25360;DHT22;13311;51.386;0.016;2023-07-13T05:48:57;22.70;81.50
25360;DHT22;13311;51.386;0.016;2023-07-13T05:53:58;23.40;78.70
25360;DHT22;13311;51.386;0.016;2023-07-13T05:58:59;24.10;75.20
25360;DHT22;13311;51.386;0.016;2023-07-13T06:04:00;24.60;75.10
25360;DHT22;13311;51.386;0.016;2023-07-13T06:09:01;25.20;73.00
25360;DHT22;13311;51.386;0.016;2023-07-13T06:14:02;25.70;71.90
25360;DHT22;13311;51.386;0.016;2023-07-13T06:19:04;26.20;69.90
25360;DHT22;13311;51.386;0.016;2023-07-13T06:24:05;26.40;67.40
25360;DHT22;13311;51.386;0.016;2023-07-13T06:29:05;26.60;66.20
25360;DHT22;13311;51.386;0.016;2023-07-13T06:34:06;26.30;66.80
25360;DHT22;13311;51.386;0.016;2023-07-13T06:39:07;25.60;67.70
25360;DHT22;13311;51.386;0.016;2023-07-13T06:44:08;25.00;70.00
25360;DHT22;13311;51.386;0.016;2023-07-13T06:49:09;24.50;71.60
25360;DHT22;13311;51.386;0.016;2023-07-13T06:54:10;24.40;73.00
25360;DHT22;13311;51.386;0.016;2023-07-13T06:59:11;24.80;72.30
25360;DHT22;13311;51.386;0.016;2023-07-13T07:04:11;25.20;71.60
25360;DHT22;13311;51.386;0.016;2023-07-13T07:09:12;25.60;67.60
25360;DHT22;13311;51.386;0.016;2023-07-13T07:14:13;25.80;69.10
25360;DHT22;13311;51.386;0.016;2023-07-13T07:19:14;25.80;68.60
25360;DHT22;13311;51.386;0.016;2023-07-13T07:24:15;25.80;69.10
25360;DHT22;13311;51.386;0.016;2023-07-13T07:29:16;25.80;68.60
25360;DHT22;13311;51.386;0.016;2023-07-13T07:34:17;25.90;68.30
25360;DHT22;13311;51.386;0.016;2023-07-13T07:39:18;25.70;67.50
25360;DHT22;13311;51.386;0.016;2023-07-13T07:44:19;25.50;68.00
25360;DHT22;13311;51.386;0.016;2023-07-13T07:49:20;25.30;69.00
25360;DHT22;13311;51.386;0.016;2023-07-13T07:54:21;25.10;69.30
25360;DHT22;13311;51.386;0.016;2023-07-13T07:59:21;25.00;69.40
25360;DHT22;13311;51.386;0.016;2023-07-13T08:04:22;24.80;69.90
25360;DHT22;13311;51.386;0.016;2023-07-13T08:09:23;24.70;70.40
25360;DHT22;13311;51.386;0.016;2023-07-13T08:14:24;24.50;71.00
25360;DHT22;13311;51.386;0.016;2023-07-13T08:19:25;24.20;71.90
25360;DHT22;13311;51.386;0.016;2023-07-13T08:24:25;24.30;71.70
25360;DHT22;13311;51.386;0.016;2023-07-13T08:29:26;24.20;72.70
25360;DHT22;13311;51.386;0.016;2023-07-13T08:34:27;24.20;72.50
25360;DHT22;13311;51.386;0.016;2023-07-13T08:39:30;24.10;73.00
25360;DHT22;13311;51.386;0.016;2023-07-13T08:44:44;24.10;73.00
25360;DHT22;13311;51.386;0.016;2023-07-13T08:49:53;24.10;73.90
25360;DHT22;13311;51.386;0.016;2023-07-13T08:54:56;24.10;73.90
25360;DHT22;13311;51.386;0.016;2023-07-13T08:59:58;23.90;74.20
25360;DHT22;13311;51.386;0.016;2023-07-13T09:05:08;24.10;73.70
25360;DHT22;13311;51.386;0.016;2023-07-13T09:10:31;24.20;73.60
25360;DHT22;13311;51.386;0.016;2023-07-13T09:15:39;24.40;73.40
25360;DHT22;13311;51.386;0.016;2023-07-13T09:21:10;24.90;72.80
25360;DHT22;13311;51.386;0.016;2023-07-13T09:26:19;25.30;71.50
25360;DHT22;13311;51.386;0.016;2023-07-13T09:31:45;25.70;71.30
25360;DHT22;13311;51.386;0.016;2023-07-13T09:36:47;26.00;69.80
25360;DHT22;13311;51.386;0.016;2023-07-13T09:42:15;26.30;68.40
25360;DHT22;13311;51.386;0.016;2023-07-13T09:47:25;26.50;68.20
25360;DHT22;13311;51.386;0.016;2023-07-13T09:52:49;26.80;67.90
25360;DHT22;13311;51.386;0.016;2023-07-13T09:57:50;26.80;67.00
25360;DHT22;13311;51.386;0.016;2023-07-13T10:08:29;27.30;66.60
25360;DHT22;13311;51.386;0.016;2023-07-13T10:13:35;27.40;64.50
25360;DHT22;13311;51.386;0.016;2023-07-13T10:18:48;27.60;64.40
25360;DHT22;13311;51.386;0.016;2023-07-13T10:23:58;27.60;64.20
25360;DHT22;13311;51.386;0.016;2023-07-13T10:29:10;27.60;64.20
25360;DHT22;13311;51.386;0.016;2023-07-13T10:34:13;27.50;65.40
25360;DHT22;13311;51.386;0.016;2023-07-13T10:39:18;27.20;64.70
25360;DHT22;13311;51.386;0.016;2023-07-13T10:44:32;27.10;63.90
25360;DHT22;13311;51.386;0.016;2023-07-13T10:49:34;26.90;63.90
25360;DHT22;13311;51.386;0.016;2023-07-13T10:54:38;26.60;65.60
25360;DHT22;13311;51.386;0.016;2023-07-13T10:59:39;26.40;71.30
25360;DHT22;13311;51.386;0.016;2023-07-13T11:04:48;26.40;71.50
25360;DHT22;13311;51.386;0.016;2023-07-13T11:09:52;26.30;74.70
25360;DHT22;13311;51.386;0.016;2023-07-13T11:25:33;26.90;68.10
25360;DHT22;13311;51.386;0.016;2023-07-13T11:30:38;26.80;64.20
25360;DHT22;13311;51.386;0.016;2023-07-13T11:36:03;26.90;66.20
25360;DHT22;13311;51.386;0.016;2023-07-13T11:46:24;27.10;63.70
25360;DHT22;13311;51.386;0.016;2023-07-13T11:51:27;27.00;64.40
25360;DHT22;13311;51.386;0.016;2023-07-13T11:56:31;26.90;63.90
25360;DHT22;13311;51.386;0.016;2023-07-13T12:01:35;26.70;65.30
25360;DHT22;13311;51.386;0.016;2023-07-13T12:06:42;26.50;64.90
25360;DHT22;13311;51.386;0.016;2023-07-13T12:11:44;26.60;66.10
25360;DHT22;13311;51.386;0.016;2023-07-13T12:16:47;26.40;70.20
25360;DHT22;13311;51.386;0.016;2023-07-13T12:21:52;26.00;73.10
25360;DHT22;13311;51.386;0.016;2023-07-13T12:27:00;25.40;77.70
25360;DHT22;13311;51.386;0.016;2023-07-13T12:32:08;24.90;79.30
25360;DHT22;13311;51.386;0.016;2023-07-13T12:37:12;24.80;81.40
25360;DHT22;13311;51.386;0.016;2023-07-13T12:42:24;24.80;83.20
25360;DHT22;13311;51.386;0.016;2023-07-13T12:47:29;25.10;78.80
25360;DHT22;13311;51.386;0.016;2023-07-13T12:52:33;25.20;79.40
25360;DHT22;13311;51.386;0.016;2023-07-13T12:57:40;25.30;78.40
25360;DHT22;13311;51.386;0.016;2023-07-13T13:02:43;25.50;76.60
25360;DHT22;13311;51.386;0.016;2023-07-13T13:07:44;25.50;79.30
25360;DHT22;13311;51.386;0.016;2023-07-13T13:12:48;25.50;77.50
25360;DHT22;13311;51.386;0.016;2023-07-13T13:17:48;25.50;76.60
25360;DHT22;13311;51.386;0.016;2023-07-13T13:22:49;25.40;74.70
25360;DHT22;13311;51.386;0.016;2023-07-13T13:27:50;25.30;73.50
25360;DHT22;13311;51.386;0.016;2023-07-13T13:32:51;25.00;74.90
25360;DHT22;13311;51.386;0.016;2023-07-13T13:37:52;24.70;74.70
25360;DHT22;13311;51.386;0.016;2023-07-13T13:42:53;24.60;76.60
25360;DHT22;13311;51.386;0.016;2023-07-13T13:47:56;25.00;75.20
25360;DHT22;13311;51.386;0.016;2023-07-13T13:52:57;25.10;74.80
25360;DHT22;13311;51.386;0.016;2023-07-13T13:57:57;25.20;73.90
25360;DHT22;13311;51.386;0.016;2023-07-13T14:02:58;25.40;72.20
25360;DHT22;13311;51.386;0.016;2023-07-13T14:08:00;25.30;73.40
25360;DHT22;13311;51.386;0.016;2023-07-13T14:13:00;25.30;74.20
25360;DHT22;13311;51.386;0.016;2023-07-13T14:18:01;25.20;73.10
25360;DHT22;13311;51.386;0.016;2023-07-13T14:23:02;25.30;72.80
25360;DHT22;13311;51.386;0.016;2023-07-13T14:33:24;25.70;71.50
25360;DHT22;13311;51.386;0.016;2023-07-13T14:38:25;25.90;71.40
25360;DHT22;13311;51.386;0.016;2023-07-13T14:43:26;26.00;70.50
25360;DHT22;13311;51.386;0.016;2023-07-13T14:48:30;26.10;70.80
25360;DHT22;13311;51.386;0.016;2023-07-13T14:53:31;26.20;69.50
25360;DHT22;13311;51.386;0.016;2023-07-13T14:58:31;26.30;68.00
25360;DHT22;13311;51.386;0.016;2023-07-13T15:03:32;26.60;68.80
25360;DHT22;13311;51.386;0.016;2023-07-13T15:08:33;26.60;66.20
25360;DHT22;13311;51.386;0.016;2023-07-13T15:13:35;26.70;67.10
25360;DHT22;13311;51.386;0.016;2023-07-13T15:18:36;26.80;67.90
25360;DHT22;13311;51.386;0.016;2023-07-13T15:23:41;26.80;67.30
25360;DHT22;13311;51.386;0.016;2023-07-13T15:28:42;26.70;66.40
25360;DHT22;13311;51.386;0.016;2023-07-13T15:33:44;26.70;65.00
25360;DHT22;13311;51.386;0.016;2023-07-13T15:38:46;26.50;65.70
25360;DHT22;13311;51.386;0.016;2023-07-13T15:43:52;26.50;64.30
25360;DHT22;13311;51.386;0.016;2023-07-13T15:48:57;26.60;64.60
25360;DHT22;13311;51.386;0.016;2023-07-13T15:54:00;26.60;63.90
25360;DHT22;13311;51.386;0.016;2023-07-13T15:59:05;26.50;64.60
25360;DHT22;13311;51.386;0.016;2023-07-13T16:04:06;26.60;64.40
25360;DHT22;13311;51.386;0.016;2023-07-13T16:09:19;26.40;62.30
25360;DHT22;13311;51.386;0.016;2023-07-13T16:14:22;26.50;65.80
25360;DHT22;13311;51.386;0.016;2023-07-13T16:19:25;26.60;65.20
25360;DHT22;13311;51.386;0.016;2023-07-13T16:24:29;26.50;65.60
25360;DHT22;13311;51.386;0.016;2023-07-13T16:29:31;26.30;65.10
25360;DHT22;13311;51.386;0.016;2023-07-13T16:34:35;26.30;64.90
25360;DHT22;13311;51.386;0.016;2023-07-13T16:39:37;26.20;64.80
25360;DHT22;13311;51.386;0.016;2023-07-13T16:44:38;26.30;65.90
25360;DHT22;13311;51.386;0.016;2023-07-13T16:49:39;26.30;65.00
25360;DHT22;13311;51.386;0.016;2023-07-13T16:54:40;26.20;66.00
25360;DHT22;13311;51.386;0.016;2023-07-13T16:59:42;26.20;65.90
25360;DHT22;13311;51.386;0.016;2023-07-13T17:04:43;26.00;66.60
25360;DHT22;13311;51.386;0.016;2023-07-13T17:09:46;26.00;66.80
25360;DHT22;13311;51.386;0.016;2023-07-13T17:14:47;25.80;66.10
25360;DHT22;13311;51.386;0.016;2023-07-13T17:19:50;25.70;65.10
25360;DHT22;13311;51.386;0.016;2023-07-13T17:24:52;25.50;65.30
25360;DHT22;13311;51.386;0.016;2023-07-13T17:29:53;25.50;65.80
25360;DHT22;13311;51.386;0.016;2023-07-13T17:34:54;25.50;65.50
25360;DHT22;13311;51.386;0.016;2023-07-13T17:39:55;25.50;65.70
25360;DHT22;13311;51.386;0.016;2023-07-13T17:44:57;25.50;65.50
25360;DHT22;13311;51.386;0.016;2023-07-13T17:49:58;25.60;66.30
25360;DHT22;13311;51.386;0.016;2023-07-13T17:54:59;25.50;65.00
25360;DHT22;13311;51.386;0.016;2023-07-13T18:00:03;25.50;66.10
25360;DHT22;13311;51.386;0.016;2023-07-13T18:05:24;25.40;64.10
25360;DHT22;13311;51.386;0.016;2023-07-13T18:10:25;25.50;66.60
25360;DHT22;13311;51.386;0.016;2023-07-13T18:15:29;25.30;65.50
25360;DHT22;13311;51.386;0.016;2023-07-13T18:20:31;25.20;66.00
25360;DHT22;13311;51.386;0.016;2023-07-13T18:25:33;25.10;67.00
25360;DHT22;13311;51.386;0.016;2023-07-13T18:30:34;25.10;67.90
25360;DHT22;13311;51.386;0.016;2023-07-13T18:35:36;25.10;68.60
25360;DHT22;13311;51.386;0.016;2023-07-13T18:40:38;25.00;69.20
25360;DHT22;13311;51.386;0.016;2023-07-13T18:45:39;24.70;69.30
25360;DHT22;13311;51.386;0.016;2023-07-13T18:50:40;24.40;70.10
25360;DHT22;13311;51.386;0.016;2023-07-13T18:55:44;24.30;70.60
25360;DHT22;13311;51.386;0.016;2023-07-13T19:00:47;24.10;73.30
25360;DHT22;13311;51.386;0.016;2023-07-13T19:05:58;23.90;74.80
25360;DHT22;13311;51.386;0.016;2023-07-13T19:11:00;23.60;76.80
25360;DHT22;13311;51.386;0.016;2023-07-13T19:16:01;23.40;79.50
25360;DHT22;13311;51.386;0.016;2023-07-13T19:21:26;23.30;80.20
25360;DHT22;13311;51.386;0.016;2023-07-13T19:26:36;23.00;82.30
25360;DHT22;13311;51.386;0.016;2023-07-13T19:31:37;22.80;82.50
25360;DHT22;13311;51.386;0.016;2023-07-13T19:36:39;22.70;82.20
25360;DHT22;13311;51.386;0.016;2023-07-13T19:41:40;22.60;82.80
25360;DHT22;13311;51.386;0.016;2023-07-13T19:46:41;22.40;83.10
25360;DHT22;13311;51.386;0.016;2023-07-13T19:51:42;22.30;83.20
25360;DHT22;13311;51.386;0.016;2023-07-13T19:56:44;22.30;83.50
25360;DHT22;13311;51.386;0.016;2023-07-13T20:01:45;22.30;83.10
25360;DHT22;13311;51.386;0.016;2023-07-13T20:06:46;22.40;81.10
25360;DHT22;13311;51.386;0.016;2023-07-13T20:11:47;22.40;80.50
25360;DHT22;13311;51.386;0.016;2023-07-13T20:16:49;22.20;80.00
25360;DHT22;13311;51.386;0.016;2023-07-13T20:21:53;22.10;80.20
25360;DHT22;13311;51.386;0.016;2023-07-13T20:26:53;22.00;80.30
25360;DHT22;13311;51.386;0.016;2023-07-13T20:31:54;21.80;80.00
25360;DHT22;13311;51.386;0.016;2023-07-13T20:36:55;21.70;80.00
25360;DHT22;13311;51.386;0.016;2023-07-13T20:41:56;21.60;80.00
25360;DHT22;13311;51.386;0.016;2023-07-13T20:46:57;21.50;79.90
25360;DHT22;13311;51.386;0.016;2023-07-13T20:52:04;21.40;79.80
25360;DHT22;13311;51.386;0.016;2023-07-13T20:57:10;21.30;79.80
25360;DHT22;13311;51.386;0.016;2023-07-13T21:02:23;21.20;79.80
25360;DHT22;13311;51.386;0.016;2023-07-13T21:07:27;21.20;79.90
25360;DHT22;13311;51.386;0.016;2023-07-13T21:12:28;21.10;80.10
25360;DHT22;13311;51.386;0.016;2023-07-13T21:17:30;21.00;80.40
25360;DHT22;13311;51.386;0.016;2023-07-13T21:22:33;20.90;80.70
25360;DHT22;13311;51.386;0.016;2023-07-13T21:27:34;20.90;81.30
25360;DHT22;13311;51.386;0.016;2023-07-13T21:32:34;20.80;81.40
25360;DHT22;13311;51.386;0.016;2023-07-13T21:37:35;20.80;81.60
25360;DHT22;13311;51.386;0.016;2023-07-13T21:42:36;20.80;81.50
25360;DHT22;13311;51.386;0.016;2023-07-13T21:47:37;20.80;81.60
25360;DHT22;13311;51.386;0.016;2023-07-13T21:52:38;20.70;81.80
25360;DHT22;13311;51.386;0.016;2023-07-13T21:57:38;20.60;82.00
25360;DHT22;13311;51.386;0.016;2023-07-13T22:02:39;20.60;82.00
25360;DHT22;13311;51.386;0.016;2023-07-13T22:07:40;20.50;82.30
25360;DHT22;13311;51.386;0.016;2023-07-13T22:12:41;20.40;82.60
25360;DHT22;13311;51.386;0.016;2023-07-13T22:17:46;20.40;82.60
25360;DHT22;13311;51.386;0.016;2023-07-13T22:22:48;20.30;82.50
25360;DHT22;13311;51.386;0.016;2023-07-13T22:27:49;20.30;83.00
25360;DHT22;13311;51.386;0.016;2023-07-13T22:32:50;20.20;83.00
25360;DHT22;13311;51.386;0.016;2023-07-13T22:37:55;20.30;83.10
25360;DHT22;13311;51.386;0.016;2023-07-13T22:42:59;20.20;83.20
25360;DHT22;13311;51.386;0.016;2023-07-13T22:48:00;20.20;83.60
25360;DHT22;13311;51.386;0.016;2023-07-13T22:53:00;20.20;83.50
25360;DHT22;13311;51.386;0.016;2023-07-13T22:58:01;20.20;83.90
25360;DHT22;13311;51.386;0.016;2023-07-13T23:03:03;20.20;84.30
25360;DHT22;13311;51.386;0.016;2023-07-13T23:08:12;20.10;84.80
25360;DHT22;13311;51.386;0.016;2023-07-13T23:13:14;20.00;85.40
25360;DHT22;13311;51.386;0.016;2023-07-13T23:18:17;19.90;86.00
25360;DHT22;13311;51.386;0.016;2023-07-13T23:23:18;19.90;86.40
25360;DHT22;13311;51.386;0.016;2023-07-13T23:28:22;19.80;86.90
25360;DHT22;13311;51.386;0.016;2023-07-13T23:33:26;19.80;87.70
25360;DHT22;13311;51.386;0.016;2023-07-13T23:38:28;19.70;88.50
25360;DHT22;13311;51.386;0.016;2023-07-13T23:43:29;19.70;89.00
25360;DHT22;13311;51.386;0.016;2023-07-13T23:48:29;19.60;89.50
25360;DHT22;13311;51.386;0.016;2023-07-13T23:53:30;19.60;89.80
25360;DHT22;13311;51.386;0.016;2023-07-13T23:58:31;19.70;89.90
